Time;durP1;ratioP1;P1;durP2;ratioP2;P2;SDS_P1;SDS_P2;PMS_P1;PMS_P2;Temp;Humidity;BMP_temperature;BMP_pressure;BME280_temperature;BME280_humidity;BME280_pressure;Samples;Min_cycle;Max_cycle;Signal;HPM_P1;HPM_P2
2022/07/15 00:02:25;;;;;;;4.20;1.00;;;;;;;15.91;100.00;101555.72;5112603;27;20067;-82
2022/07/15 00:04:52;;;;;;;1.05;0.80;;;;;;;15.99;100.00;101549.22;5111005;27;20058;-82
2022/07/15 00:07:20;;;;;;;4.25;1.02;;;;;;;15.98;100.00;101552.78;5119428;27;20065;-81
2022/07/15 00:12:32;;;;;;;2.08;0.82;;;;;;;16.07;100.00;101555.84;5113219;27;20058;-81
2022/07/15 00:15:00;;;;;;;5.20;1.67;;;;;;;16.20;100.00;101550.84;5098975;27;20044;-81
2022/07/15 00:17:27;;;;;;;3.85;1.40;;;;;;;15.93;100.00;101545.91;5102323;28;20048;-81
2022/07/15 00:19:53;;;;;;;3.60;1.23;;;;;;;15.88;100.00;101549.72;5094112;28;20056;-81
2022/07/15 00:22:21;;;;;;;1.58;0.80;;;;;;;16.00;100.00;101543.84;5111262;27;20047;-81
2022/07/15 00:24:47;;;;;;;2.78;0.82;;;;;;;15.96;100.00;101526.44;5098449;27;20055;-81
2022/07/15 00:27:14;;;;;;;3.10;1.00;;;;;;;15.90;100.00;101535.53;5097290;27;20058;-81
2022/07/15 00:29:41;;;;;;;3.85;1.05;;;;;;;15.92;100.00;101540.75;5099653;27;20048;-81
2022/07/15 00:32:08;;;;;;;1.30;0.90;;;;;;;16.03;100.00;101538.44;5093783;27;20047;-81
2022/07/15 00:34:35;;;;;;;2.85;0.95;;;;;;;16.01;100.00;101500.69;5100837;27;20134;-81
2022/07/15 00:37:03;;;;;;;4.25;1.13;;;;;;;15.56;100.00;101457.88;5091452;28;20062;-81
2022/07/15 00:39:30;;;;;;;3.55;1.10;;;;;;;15.93;100.00;101506.31;5118473;27;20153;-81
2022/07/15 00:41:56;;;;;;;2.05;0.98;;;;;;;15.95;100.00;101516.81;5094188;27;20065;-81
2022/07/15 00:44:23;;;;;;;3.63;1.00;;;;;;;15.64;100.00;101512.09;5113399;27;20066;-82
2022/07/15 00:46:51;;;;;;;2.78;1.00;;;;;;;15.69;100.00;101500.41;5093462;27;20147;-81
2022/07/15 00:49:19;;;;;;;3.60;1.00;;;;;;;15.77;100.00;101513.25;5093659;27;20086;-82
2022/07/15 00:51:54;;;;;;;2.38;0.90;;;;;;;15.78;100.00;101512.34;5096498;27;20132;-82
2022/07/15 00:54:26;;;;;;;3.53;1.08;;;;;;;15.84;100.00;101495.34;5094238;27;20590;-81
2022/07/15 00:56:55;;;;;;;3.35;1.08;;;;;;;15.87;100.00;101511.91;5114709;27;20055;-81
2022/07/15 00:59:25;;;;;;;3.30;1.10;;;;;;;15.91;100.00;101500.25;5097197;27;20054;-81
2022/07/15 01:01:53;;;;;;;1.77;0.88;;;;;;;16.07;100.00;101505.66;5098555;28;20454;-82
2022/07/15 01:04:21;;;;;;;3.83;1.30;;;;;;;15.92;100.00;101503.78;5092442;27;20639;-81
2022/07/15 01:06:48;;;;;;;2.55;0.98;;;;;;;15.67;100.00;101491.69;5095549;27;20602;-81
2022/07/15 01:09:15;;;;;;;2.70;1.00;;;;;;;15.83;100.00;101501.53;5097879;27;20051;-81
2022/07/15 01:11:42;;;;;;;3.08;1.10;;;;;;;15.75;100.00;101494.84;5113848;27;20411;-82
2022/07/15 01:14:09;;;;;;;7.10;1.13;;;;;;;15.58;100.00;101489.47;5093116;27;20058;-82
2022/07/15 01:16:35;;;;;;;2.83;1.05;;;;;;;15.58;100.00;101489.47;5095214;27;20507;-82
2022/07/15 01:19:02;;;;;;;3.45;0.90;;;;;;;15.70;100.00;101495.97;5100980;27;20084;-82
2022/07/15 01:21:29;;;;;;;4.38;1.17;;;;;;;15.83;100.00;101497.13;5098376;28;20753;-81
2022/07/15 01:23:56;;;;;;;5.53;1.48;;;;;;;15.71;100.00;101487.97;5088334;27;20413;-81
2022/07/15 01:26:23;;;;;;;3.40;1.20;;;;;;;15.78;100.00;101493.00;5102956;27;20052;-82
2022/07/15 01:28:49;;;;;;;2.90;1.05;;;;;;;16.00;100.00;101495.47;5103301;27;20047;-82
2022/07/15 01:31:16;;;;;;;2.85;1.20;;;;;;;15.99;100.00;101485.81;5094375;28;20042;-82
2022/07/15 01:33:43;;;;;;;3.10;1.10;;;;;;;15.65;100.00;101409.09;5110166;27;20073;-82
2022/07/15 01:36:10;;;;;;;5.03;1.50;;;;;;;15.85;100.00;101473.31;5106983;27;20043;-82
2022/07/15 01:38:37;;;;;;;2.85;1.00;;;;;;;15.97;100.00;101499.13;5074258;28;20609;-81
2022/07/15 01:41:15;;;;;;;3.45;1.52;;;;;;;15.78;100.00;101448.97;5101831;28;20056;-81
2022/07/15 01:43:42;;;;;;;4.15;1.20;;;;;;;15.92;100.00;101475.56;5090787;28;20040;-81
2022/07/15 01:46:09;;;;;;;2.60;1.10;;;;;;;15.99;100.00;101489.34;5107327;28;20044;-81
2022/07/15 01:51:21;;;;;;;2.90;1.00;;;;;;;16.17;100.00;101486.72;5112312;28;20598;-82
2022/07/15 01:53:48;;;;;;;1.88;1.00;;;;;;;15.99;100.00;101481.41;5100809;27;20054;-81
2022/07/15 01:56:14;;;;;;;3.38;1.23;;;;;;;15.95;100.00;101463.97;5096189;28;20059;-81
2022/07/15 01:58:42;;;;;;;3.55;1.38;;;;;;;16.04;100.00;101470.59;5110865;28;20710;-81
2022/07/15 02:01:09;;;;;;;3.88;1.10;;;;;;;16.10;100.00;101465.03;5093311;28;20057;-81
2022/07/15 02:03:35;;;;;;;2.95;1.17;;;;;;;16.20;100.00;101458.38;5103251;28;20511;-81
2022/07/15 02:06:03;;;;;;;2.47;1.00;;;;;;;16.31;100.00;101453.41;5115499;27;20051;-81
2022/07/15 02:08:29;;;;;;;2.35;0.90;;;;;;;16.31;100.00;101453.41;5090318;27;20497;-82
2022/07/15 02:10:56;;;;;;;4.63;1.20;;;;;;;16.44;100.00;101444.84;5094823;28;20048;-81
2022/07/15 02:13:23;;;;;;;5.57;1.10;;;;;;;16.29;100.00;101443.84;5103940;27;20043;-81
2022/07/15 02:15:50;;;;;;;3.58;1.10;;;;;;;16.30;100.00;101427.03;5108220;28;20519;-81
2022/07/15 02:18:17;;;;;;;4.40;1.20;;;;;;;16.32;100.00;101447.19;5095695;28;20062;-82
2022/07/15 02:20:43;;;;;;;4.70;1.25;;;;;;;16.33;100.00;101438.31;5103752;28;20058;-81
2022/07/15 02:23:10;;;;;;;3.35;1.20;;;;;;;16.36;100.00;101433.81;5090987;28;20513;-81
2022/07/15 02:25:37;;;;;;;3.05;1.10;;;;;;;16.12;100.00;101420.91;5084062;28;20045;-82
2022/07/15 02:28:06;;;;;;;4.95;1.20;;;;;;;16.03;100.00;101424.84;5097527;28;20089;-81
2022/07/15 02:30:38;;;;;;;3.28;1.00;;;;;;;16.07;100.00;101417.63;5097658;28;20040;-81
2022/07/15 02:33:05;;;;;;;4.10;1.10;;;;;;;16.27;100.00;101433.34;5092361;28;20046;-82
2022/07/15 02:35:33;;;;;;;3.42;1.30;;;;;;;16.09;100.00;101437.75;5084822;28;20114;-81
2022/07/15 02:38:00;;;;;;;3.28;1.10;;;;;;;16.13;100.00;101431.41;5105134;28;20047;-81
2022/07/15 02:40:28;;;;;;;6.30;1.30;;;;;;;16.14;100.00;101426.97;5084077;28;20055;-81
2022/07/15 02:42:57;;;;;;;5.13;1.27;;;;;;;15.93;100.00;101399.81;5113666;28;20090;-81
2022/07/15 02:45:27;;;;;;;3.00;1.00;;;;;;;15.99;100.00;101433.00;5115552;28;20047;-81
2022/07/15 02:47:55;;;;;;;3.70;1.25;;;;;;;15.97;100.00;101435.75;5079085;28;20052;-82
2022/07/15 02:50:22;;;;;;;4.45;1.10;;;;;;;16.02;100.00;101419.66;5077698;28;20055;-82
2022/07/15 02:52:49;;;;;;;2.83;1.13;;;;;;;15.88;100.00;101394.78;5092657;27;20058;-82
2022/07/15 02:55:17;;;;;;;4.15;1.30;;;;;;;16.07;100.00;101438.75;5118184;27;20396;-83
2022/07/15 02:57:43;;;;;;;4.70;1.20;;;;;;;16.24;100.00;101432.66;5116672;27;20051;-82
2022/07/15 03:00:13;;;;;;;3.17;1.10;;;;;;;16.05;100.00;101415.06;5096739;28;20043;-82
2022/07/15 03:02:41;;;;;;;3.90;1.20;;;;;;;16.26;100.00;101422.84;5112303;28;20488;-82
2022/07/15 03:05:09;;;;;;;3.80;1.25;;;;;;;16.18;100.00;101420.59;5105393;28;20040;-80
2022/07/15 03:07:36;;;;;;;4.07;1.20;;;;;;;16.18;100.00;101419.72;5084891;28;20409;-80
2022/07/15 03:10:03;;;;;;;3.22;1.08;;;;;;;16.04;100.00;101378.16;5076873;28;20048;-81
2022/07/15 03:12:31;;;;;;;2.50;0.93;;;;;;;16.10;100.00;101393.72;5094015;28;20048;-81
2022/07/15 03:15:00;;;;;;;3.25;1.20;;;;;;;16.02;100.00;101364.19;5092852;28;20055;-81
2022/07/15 03:17:28;;;;;;;3.88;1.20;;;;;;;16.33;100.00;101411.03;5076002;28;20079;-82
2022/07/15 03:19:55;;;;;;;3.28;1.00;;;;;;;16.15;100.00;101391.69;5091061;28;20496;-82
2022/07/15 03:22:23;;;;;;;4.10;1.20;;;;;;;16.40;100.00;101401.03;5085433;28;20044;-82
2022/07/15 03:24:50;;;;;;;3.83;1.17;;;;;;;16.26;100.00;101407.00;5091433;28;20683;-82
2022/07/15 03:27:17;;;;;;;4.93;1.00;;;;;;;16.10;100.00;101394.56;5114461;28;20054;-82
2022/07/15 03:29:44;;;;;;;4.30;1.00;;;;;;;16.21;100.00;101390.53;5096764;28;20051;-82
2022/07/15 03:32:11;;;;;;;3.88;1.10;;;;;;;16.26;100.00;101391.16;5095285;28;20047;-82
2022/07/15 03:34:38;;;;;;;5.03;1.00;;;;;;;16.18;100.00;101388.88;5082951;28;20072;-82
2022/07/15 03:37:05;;;;;;;2.25;0.90;;;;;;;16.25;100.00;101392.91;5106757;28;20051;-82
2022/07/15 03:39:31;;;;;;;3.60;1.23;;;;;;;16.29;100.00;101389.19;5087952;28;20043;-82
2022/07/15 03:41:58;;;;;;;3.42;1.10;;;;;;;16.32;100.00;101382.91;5096602;28;20054;-80
2022/07/15 03:44:25;;;;;;;3.22;1.02;;;;;;;16.42;100.00;101386.78;5115451;27;20041;-82
2022/07/15 03:46:51;;;;;;;5.05;1.40;;;;;;;16.11;100.00;101350.50;5106177;27;20047;-82
2022/07/15 03:49:18;;;;;;;3.38;1.00;;;;;;;16.22;100.00;101390.44;5131399;27;20047;-82
2022/07/15 03:51:45;;;;;;;3.53;1.08;;;;;;;16.26;100.00;101392.00;5079052;28;20040;-82
2022/07/15 03:54:12;;;;;;;4.80;1.00;;;;;;;16.06;100.00;101378.94;5105089;27;20051;-82
2022/07/15 03:56:39;;;;;;;2.65;1.10;;;;;;;16.20;100.00;101370.31;4616812;28;20477;-86
2022/07/15 03:59:06;;;;;;;4.30;1.10;;;;;;;16.40;100.00;101407.16;5108667;28;20474;-86
2022/07/15 04:01:33;;;;;;;3.60;1.10;;;;;;;15.99;100.00;101345.84;5118409;27;20130;-86
2022/07/15 04:04:00;;;;;;;2.95;1.10;;;;;;;16.38;100.00;101402.84;5127590;27;20043;-86
2022/07/15 04:06:26;;;;;;;1.35;0.80;;;;;;;16.33;100.00;101385.47;5135040;27;20051;-86
2022/07/15 04:08:53;;;;;;;3.53;1.15;;;;;;;16.16;100.00;101355.56;5111098;28;20055;-85
2022/07/15 04:11:20;;;;;;;2.17;0.90;;;;;;;16.50;100.00;101396.94;5081554;28;20040;-86
2022/07/15 04:13:47;;;;;;;3.17;1.08;;;;;;;16.37;100.00;101393.25;5095426;28;20055;-86
2022/07/15 04:16:14;;;;;;;2.90;0.98;;;;;;;16.22;100.00;101387.81;5109627;27;20053;-86
2022/07/15 04:18:41;;;;;;;2.95;1.10;;;;;;;16.21;100.00;101388.72;5114002;28;20766;-86
2022/07/15 04:21:08;;;;;;;3.53;1.15;;;;;;;16.18;100.00;101388.03;5095870;27;20069;-86
2022/07/15 04:23:35;;;;;;;3.85;1.20;;;;;;;16.16;100.00;101384.63;5112406;27;20048;-86
2022/07/15 04:26:03;;;;;;;4.28;1.23;;;;;;;16.09;100.00;101384.06;5108085;27;20053;-86
2022/07/15 04:28:29;;;;;;;1.98;1.00;;;;;;;16.17;100.00;101387.19;5082120;28;20040;-86
2022/07/15 04:30:56;;;;;;;2.50;1.00;;;;;;;16.17;100.00;101384.53;5106738;27;20133;-86
2022/07/15 04:33:23;;;;;;;2.70;0.93;;;;;;;16.31;100.00;101381.22;5099614;28;20071;-86
2022/07/15 04:35:50;;;;;;;4.15;1.20;;;;;;;15.97;100.00;101367.06;5095602;27;20039;-85
2022/07/15 04:38:17;;;;;;;2.92;1.10;;;;;;;15.98;100.00;101383.75;5085011;28;20044;-85
2022/07/15 04:40:44;;;;;;;2.00;0.90;;;;;;;15.85;100.00;101380.88;5095454;28;20401;-86
2022/07/15 04:43:11;;;;;;;3.15;1.05;;;;;;;15.79;100.00;101389.94;5113283;27;20071;-86
2022/07/15 04:45:38;;;;;;;3.90;1.20;;;;;;;15.75;100.00;101380.47;5114178;27;20043;-86
2022/07/15 04:50:45;;;;;;;3.72;1.23;;;;;;;15.67;100.00;101372.03;5115177;27;20477;-86
2022/07/15 04:50:52;;;;;;;3.92;1.40;;;;;;;15.78;100.00;101367.13;5125556;27;20134;-86
2022/07/15 04:53:21;;;;;;;5.20;1.20;;;;;;;15.69;100.00;101368.41;5095655;28;20043;-85
2022/07/15 04:55:48;;;;;;;3.45;1.15;;;;;;;15.86;100.00;101382.56;5114126;27;20053;-86
2022/07/15 04:58:15;;;;;;;3.75;1.25;;;;;;;15.82;100.00;101379.22;5103005;28;20058;-85
2022/07/15 05:00:44;;;;;;;2.88;1.17;;;;;;;15.85;100.00;101371.16;5093910;28;20066;-86
2022/07/15 05:03:11;;;;;;;2.80;1.13;;;;;;;15.96;100.00;101369.78;5095356;28;20043;-85
2022/07/15 05:05:38;;;;;;;5.05;1.30;;;;;;;15.96;100.00;101370.63;5081330;28;20072;-85
2022/07/15 05:08:06;;;;;;;2.80;1.10;;;;;;;15.94;100.00;101362.78;5112298;28;20050;-85
2022/07/15 05:10:34;;;;;;;3.17;1.08;;;;;;;15.94;100.00;101359.28;5093993;28;20048;-85
2022/07/15 05:13:03;;;;;;;3.25;1.00;;;;;;;15.96;100.00;101372.44;5083529;28;20047;-85
2022/07/15 05:15:30;;;;;;;5.47;1.40;;;;;;;15.72;100.00;101351.53;5086767;28;20444;-86
2022/07/15 05:17:57;;;;;;;4.45;1.30;;;;;;;15.85;100.00;101362.41;5097796;28;20533;-85
2022/07/15 05:20:24;;;;;;;3.63;1.30;;;;;;;15.85;100.00;101370.31;5108695;28;20053;-86
2022/07/15 05:22:50;;;;;;;3.88;1.20;;;;;;;15.92;100.00;101363.81;5093128;28;20043;-85
2022/07/15 05:25:17;;;;;;;3.45;1.20;;;;;;;15.95;100.00;101376.84;5085530;28;20048;-85
2022/07/15 05:27:44;;;;;;;3.38;1.10;;;;;;;15.78;100.00;101364.47;5077486;28;20050;-86
2022/07/15 05:30:18;;;;;;;2.10;1.00;;;;;;;15.90;100.00;101363.88;5094745;28;20538;-86
2022/07/15 05:32:45;;;;;;;3.85;1.23;;;;;;;15.91;100.00;101370.84;5110090;28;20404;-85
2022/07/15 05:35:14;;;;;;;4.22;1.20;;;;;;;15.91;100.00;101372.66;5093301;28;20078;-86
2022/07/15 05:37:42;;;;;;;3.13;1.00;;;;;;;16.05;100.00;101374.59;5081658;28;20105;-85
2022/07/15 05:40:11;;;;;;;5.65;1.20;;;;;;;16.20;100.00;101368.53;5079687;28;20055;-85
2022/07/15 05:42:39;;;;;;;4.72;1.20;;;;;;;16.37;100.00;101380.03;5090417;28;20052;-84
2022/07/15 05:45:08;;;;;;;2.67;0.98;;;;;;;16.27;100.00;101379.63;5079690;28;20044;-86
2022/07/15 05:47:34;;;;;;;2.90;1.15;;;;;;;16.17;100.00;101383.69;5084512;28;20491;-86
2022/07/15 05:50:02;;;;;;;3.95;1.42;;;;;;;16.08;100.00;101367.38;5081069;28;20055;-85
2022/07/15 05:52:29;;;;;;;5.85;1.58;;;;;;;16.26;100.00;101375.31;5092134;28;20118;-85
2022/07/15 05:54:55;;;;;;;3.40;1.00;;;;;;;16.39;100.00;101354.38;5091379;28;20048;-85
2022/07/15 05:57:22;;;;;;;4.03;1.15;;;;;;;16.28;100.00;101374.28;5093253;28;20055;-84
2022/07/15 05:59:49;;;;;;;3.95;1.17;;;;;;;16.27;100.00;101361.13;5078340;28;20054;-85
2022/07/15 06:02:16;;;;;;;2.63;1.10;;;;;;;16.51;100.00;101359.00;5097068;28;20043;-84
2022/07/15 06:04:43;;;;;;;4.20;1.38;;;;;;;16.41;100.00;101337.47;5092195;28;20401;-85
2022/07/15 06:07:10;;;;;;;3.28;1.10;;;;;;;16.25;100.00;101318.09;5112986;28;20047;-85
2022/07/15 06:09:36;;;;;;;4.88;1.50;;;;;;;16.34;100.00;101338.75;5089920;28;20725;-85
2022/07/15 06:12:03;;;;;;;4.68;1.40;;;;;;;16.30;100.00;101329.28;5098849;28;20490;-85
2022/07/15 06:14:30;;;;;;;4.93;1.30;;;;;;;16.34;100.00;101341.38;5089646;28;20119;-85
2022/07/15 06:17:03;;;;;;;4.93;1.52;;;;;;;16.22;100.00;101347.31;5090714;28;20043;-85
2022/07/15 06:19:30;;;;;;;7.18;1.70;;;;;;;16.18;100.00;101309.63;5088558;28;20044;-85
2022/07/15 06:21:56;;;;;;;9.48;1.65;;;;;;;16.27;100.00;101356.72;5093892;28;20059;-85
2022/07/15 06:24:23;;;;;;;4.80;1.48;;;;;;;16.00;100.00;101306.16;5098008;28;20044;-85
2022/07/15 06:26:51;;;;;;;6.35;1.83;;;;;;;16.38;100.00;101328.88;5080813;28;20059;-85
2022/07/15 06:29:18;;;;;;;4.60;1.42;;;;;;;16.45;100.00;101348.75;5092730;28;20406;-85
2022/07/15 06:31:45;;;;;;;2.70;1.10;;;;;;;16.62;100.00;101348.72;5081683;28;20047;-85
2022/07/15 06:34:12;;;;;;;6.60;1.75;;;;;;;16.79;100.00;101355.75;5108372;28;20055;-85
2022/07/15 06:36:39;;;;;;;5.03;1.63;;;;;;;16.13;100.00;101306.41;5104737;28;20044;-85
2022/07/15 06:39:06;;;;;;;4.82;1.42;;;;;;;16.24;100.00;101309.31;5091003;28;20649;-85
2022/07/15 06:41:33;;;;;;;5.15;1.50;;;;;;;16.72;100.00;101349.09;5091944;28;20054;-85
2022/07/15 06:44:01;;;;;;;5.82;1.40;;;;;;;16.58;100.00;101333.97;5086044;28;20544;-85
2022/07/15 06:46:28;;;;;;;3.63;1.30;;;;;;;16.78;100.00;101346.09;5077773;28;20048;-85
2022/07/15 06:48:56;;;;;;;4.35;1.40;;;;;;;16.28;100.00;101321.44;5108828;28;20051;-85
2022/07/15 06:51:22;;;;;;;5.38;1.50;;;;;;;16.61;100.00;101362.00;5106923;28;20050;-85
2022/07/15 06:53:49;;;;;;;3.40;1.30;;;;;;;16.51;100.00;101295.56;5110456;28;20048;-85
2022/07/15 06:56:16;;;;;;;6.25;1.48;;;;;;;16.63;100.00;101315.22;5094379;28;20040;-85
2022/07/15 06:58:43;;;;;;;3.30;1.00;;;;;;;16.79;100.00;101310.81;5100111;28;20059;-85
2022/07/15 07:01:09;;;;;;;5.63;1.60;;;;;;;16.78;100.00;101302.94;5087016;28;20382;-85
2022/07/15 07:03:38;;;;;;;4.85;1.48;;;;;;;16.91;100.00;101335.75;5106923;27;20537;-85
2022/07/15 07:06:25;;;;;;;4.78;1.55;;;;;;;17.12;100.00;101349.56;5108980;27;20100;-86
2022/07/15 07:08:52;;;;;;;3.83;1.50;;;;;;;17.06;100.00;101328.78;5122214;27;20054;-86
2022/07/15 07:11:19;;;;;;;3.75;1.30;;;;;;;16.84;100.00;101292.94;5099152;27;20044;-86
2022/07/15 07:13:47;;;;;;;6.78;1.50;;;;;;;17.08;100.00;101313.66;5099152;27;20051;-87
2022/07/15 07:16:15;;;;;;;6.00;1.70;;;;;;;16.95;100.00;101307.34;5105192;27;20043;-85
2022/07/15 07:18:42;;;;;;;5.63;1.70;;;;;;;17.09;100.00;101299.50;5103941;27;20043;-85
2022/07/15 07:21:09;;;;;;;7.82;2.00;;;;;;;16.97;100.00;101290.44;5106113;27;20047;-86
2022/07/15 07:23:38;;;;;;;5.28;1.75;;;;;;;17.10;100.00;101313.56;5102284;27;20043;-86
2022/07/15 07:26:06;;;;;;;5.20;1.88;;;;;;;17.29;100.00;101339.88;5095090;28;20044;-85
2022/07/15 07:28:33;;;;;;;5.05;1.80;;;;;;;17.45;100.00;101340.69;5113397;27;20058;-86
2022/07/15 07:31:00;;;;;;;4.90;1.80;;;;;;;17.56;100.00;101351.50;5087191;28;20047;-86
2022/07/15 07:33:27;;;;;;;3.92;1.63;;;;;;;17.22;100.00;101315.53;5091222;28;20047;-86
2022/07/15 07:35:54;;;;;;;5.15;1.80;;;;;;;17.08;100.00;101298.63;5093344;28;20112;-86
2022/07/15 07:38:21;;;;;;;4.63;1.40;;;;;;;17.20;100.00;101307.69;5083043;28;20051;-86
2022/07/15 07:40:48;;;;;;;5.32;1.77;;;;;;;17.17;100.00;101284.03;5108131;28;20048;-86
2022/07/15 07:43:17;;;;;;;3.50;1.35;;;;;;;17.30;100.00;101304.50;5100733;28;20047;-86
2022/07/15 07:45:45;;;;;;;5.15;1.48;;;;;;;17.10;100.00;101281.81;5096706;28;20081;-86
2022/07/15 07:48:12;;;;;;;6.15;1.70;;;;;;;17.30;100.00;101330.97;5101699;28;20051;-85
2022/07/15 07:50:39;;;;;;;6.65;1.80;;;;;;;16.99;100.00;101287.72;5108644;28;20055;-86
2022/07/15 07:53:06;;;;;;;4.75;1.35;;;;;;;17.25;100.00;101323.31;5091863;28;20043;-86
2022/07/15 07:55:33;;;;;;;5.20;1.60;;;;;;;17.01;100.00;101342.22;5082737;28;20055;-86
2022/07/15 07:58:01;;;;;;;4.07;1.35;;;;;;;17.18;100.00;101271.69;5081989;28;20062;-86
2022/07/15 08:00:29;;;;;;;3.00;1.15;;;;;;;17.56;100.00;101335.63;5113258;28;20048;-86
2022/07/15 08:02:58;;;;;;;6.82;1.58;;;;;;;17.56;100.00;101340.94;5092322;28;20051;-86
2022/07/15 08:05:26;;;;;;;5.18;1.50;;;;;;;17.43;100.00;101305.53;5104875;28;20051;-86
2022/07/15 08:08:12;;;;;;;6.97;1.63;;;;;;;17.59;100.00;101342.56;5114475;28;20057;-85
2022/07/15 08:10:40;;;;;;;4.57;1.60;;;;;;;17.46;100.00;101337.13;5100957;27;20047;-85
2022/07/15 08:13:13;;;;;;;4.82;1.45;;;;;;;17.30;100.00;101309.78;5108411;28;20051;-86
2022/07/15 08:15:40;;;;;;;4.40;1.55;;;;;;;17.39;100.00;101323.38;5095990;28;20044;-86
2022/07/15 08:18:07;;;;;;;5.15;1.30;;;;;;;17.11;100.00;101324.06;5085586;28;20056;-85
2022/07/15 08:20:35;;;;;;;4.97;1.60;;;;;;;17.50;100.00;101345.75;5087803;28;20047;-86
2022/07/15 08:23:04;;;;;;;3.63;1.30;;;;;;;17.52;100.00;101346.50;5090727;28;20044;-86
2022/07/15 08:25:35;;;;;;;5.00;1.55;;;;;;;17.69;100.00;101329.63;5080554;28;20126;-86
2022/07/15 08:28:02;;;;;;;3.92;1.35;;;;;;;17.66;100.00;101357.16;5106879;28;20052;-86
2022/07/15 08:30:30;;;;;;;5.18;1.38;;;;;;;17.35;100.00;101334.22;5078053;28;20146;-86
2022/07/15 08:32:57;;;;;;;5.07;1.40;;;;;;;17.13;100.00;101306.31;5102483;28;20052;-87
2022/07/15 08:35:26;;;;;;;4.07;1.35;;;;;;;17.37;100.00;101340.25;5083796;28;20165;-87
2022/07/15 08:37:53;;;;;;;4.20;1.30;;;;;;;17.37;100.00;101327.91;5106200;28;20134;-86
2022/07/15 08:40:20;;;;;;;3.72;1.23;;;;;;;17.35;100.00;101291.88;5091468;28;20043;-86
2022/07/15 08:42:48;;;;;;;5.70;1.60;;;;;;;17.44;100.00;101320.44;5088140;28;20047;-86
2022/07/15 08:45:16;;;;;;;4.82;1.48;;;;;;;17.36;100.00;101299.72;5079418;28;20040;-87
2022/07/15 08:47:48;;;;;;;2.75;1.17;;;;;;;17.35;100.00;101303.31;5102016;28;20422;-86
2022/07/15 08:50:22;;;;;;;3.95;1.50;;;;;;;17.48;100.00;101326.44;5090183;28;20052;-86
2022/07/15 08:52:51;;;;;;;6.00;1.40;;;;;;;17.65;100.00;101324.53;5092163;28;20056;-86
2022/07/15 08:55:19;;;;;;;4.05;1.48;;;;;;;17.56;100.00;101317.09;5089527;28;20093;-83
2022/07/15 08:57:47;;;;;;;5.70;1.70;;;;;;;17.86;100.00;101336.63;5088010;28;20052;-87
2022/07/15 09:00:14;;;;;;;5.90;1.52;;;;;;;17.75;100.00;101318.69;5078420;28;20135;-87
2022/07/15 09:02:42;;;;;;;4.28;1.60;;;;;;;17.49;100.00;101325.50;5089780;28;20079;-85
2022/07/15 09:05:29;;;;;;;4.60;1.30;;;;;;;17.81;100.00;101350.97;5099800;28;20040;-86
2022/07/15 09:07:59;;;;;;;4.93;1.60;;;;;;;17.59;100.00;101351.34;5101650;28;20057;-87
2022/07/15 09:10:43;;;;;;;5.05;1.42;;;;;;;17.65;100.00;101315.72;5080162;28;20052;-87
2022/07/15 09:13:21;;;;;;;3.28;1.45;;;;;;;17.78;100.00;101361.75;5103433;28;20048;-87
2022/07/15 09:15:52;;;;;;;3.90;1.30;;;;;;;17.91;100.00;101343.38;5104795;28;20400;-87
2022/07/15 09:18:21;;;;;;;3.53;1.33;;;;;;;18.10;100.00;101356.38;5087266;28;20070;-87
2022/07/15 09:20:49;;;;;;;7.20;1.73;;;;;;;17.71;100.00;101296.84;5107185;28;20047;-87
2022/07/15 09:23:29;;;;;;;3.72;1.42;;;;;;;17.98;100.00;101318.22;5091302;28;20057;-86
2022/07/15 09:26:16;;;;;;;4.40;1.50;;;;;;;17.99;100.00;101324.38;5089065;28;20127;-87
2022/07/15 09:28:44;;;;;;;7.35;1.60;;;;;;;18.18;100.00;101354.13;5121869;27;20043;-87
2022/07/15 09:34:02;;;;;;;3.67;1.30;;;;;;;18.60;100.00;101341.00;5106196;28;20090;-86
2022/07/15 09:36:31;;;;;;;4.68;1.40;;;;;;;18.56;100.00;101343.00;5091832;28;20383;-85
2022/07/15 09:39:04;;;;;;;4.18;1.20;;;;;;;18.98;100.00;101340.41;5117117;27;20083;-87
2022/07/15 09:41:38;;;;;;;5.70;1.50;;;;;;;18.98;100.00;101329.81;5083417;28;20436;-87
2022/07/15 09:44:07;;;;;;;4.60;1.42;;;;;;;19.01;100.00;101303.09;5115196;27;20050;-87
2022/07/15 09:46:43;;;;;;;4.18;1.42;;;;;;;19.20;100.00;101285.97;5097921;28;20069;-88
2022/07/15 09:49:15;;;;;;;3.25;1.33;;;;;;;19.35;100.00;101277.00;5091658;28;20125;-87
2022/07/15 09:51:50;;;;;;;;;;;;;;;19.65;100.00;101334.34;5112646;28;20047;-87
2022/07/15 09:54:17;;;;;;;6.15;1.55;;;;;;;19.40;100.00;101295.28;5093706;28;20014;-87
2022/07/15 09:56:46;;;;;;;4.47;1.40;;;;;;;19.68;100.00;101332.34;5110180;28;20040;-87
2022/07/15 09:59:13;;;;;;;4.75;1.25;;;;;;;19.65;100.00;101290.03;5081166;28;20130;-87
2022/07/15 10:01:40;;;;;;;5.07;1.48;;;;;;;20.26;100.00;101343.53;5088885;28;20432;-87
2022/07/15 10:04:09;;;;;;;3.65;1.33;;;;;;;19.91;100.00;101300.75;5079097;28;20469;-87
2022/07/15 10:06:40;;;;;;;3.78;1.17;;;;;;;19.69;100.00;101309.31;5093144;28;20048;-86
2022/07/15 10:09:09;;;;;;;4.85;1.50;;;;;;;19.86;100.00;101297.56;5101191;28;20047;-86
2022/07/15 10:11:43;;;;;;;4.32;1.17;;;;;;;19.59;100.00;101342.75;5090420;28;20048;-87
2022/07/15 10:14:42;;;;;;;5.13;1.10;;;;;;;19.69;100.00;101343.84;5077029;28;20055;-86
2022/07/15 10:17:31;;;;;;;3.38;1.20;;;;;;;19.53;100.00;101315.63;5082186;28;20036;-87
2022/07/15 10:20:22;;;;;;;2.60;0.98;;;;;;;19.77;100.00;101343.34;5100321;28;20050;-87
2022/07/15 10:23:16;;;;;;;3.05;0.95;;;;;;;20.26;100.00;101346.19;5090594;28;20536;-87
2022/07/15 10:25:58;;;;;;;2.53;1.00;;;;;;;20.06;100.00;101344.03;5083550;28;20036;-86
2022/07/15 10:28:45;;;;;;;2.88;0.90;;;;;;;20.86;100.00;101333.19;5112559;28;20044;-86
2022/07/15 10:31:22;;;;;;;3.17;1.05;;;;;;;20.45;100.00;101343.09;5110139;27;20051;-86
2022/07/15 10:34:02;;;;;;;2.33;0.80;;;;;;;20.65;100.00;101335.56;5105303;28;20059;-86
2022/07/15 10:36:54;;;;;;;2.92;0.88;;;;;;;20.42;100.00;101322.03;5084002;28;20036;-86
2022/07/15 10:39:24;;;;;;;3.07;1.00;;;;;;;20.45;100.00;101289.03;5073786;28;20136;-86
2022/07/15 10:41:57;;;;;;;2.78;1.00;;;;;;;20.65;100.00;101327.59;5110581;28;20076;-86
2022/07/15 10:44:29;;;;;;;3.05;1.13;;;;;;;20.38;98.53;101332.97;5088495;28;20131;-87
2022/07/15 10:47:11;;;;;;;2.72;1.00;;;;;;;20.75;97.28;101327.78;5114219;28;20126;-85
2022/07/15 10:49:41;;;;;;;1.92;0.85;;;;;;;20.73;96.36;101316.38;5097488;28;20487;-86
2022/07/15 10:52:26;;;;;;;3.47;1.08;;;;;;;20.63;98.18;101343.66;5112294;28;20047;-86
2022/07/15 10:54:56;;;;;;;4.68;1.27;;;;;;;20.17;100.00;101344.16;5107460;28;20050;-86
2022/07/15 10:57:49;;;;;;;2.65;1.05;;;;;;;19.35;100.00;101354.88;5084706;28;20044;-86
2022/07/15 11:00:33;;;;;;;4.65;1.23;;;;;;;18.69;100.00;101302.44;5102173;28;20051;-86
2022/07/15 11:03:07;;;;;;;5.82;1.23;;;;;;;18.65;100.00;101354.84;5102252;28;20047;-86
2022/07/15 11:05:42;;;;;;;3.60;1.08;;;;;;;18.68;100.00;101356.44;5108342;28;20055;-86
2022/07/15 11:08:31;;;;;;;4.13;1.20;;;;;;;19.42;100.00;101357.09;5100030;27;20135;-85
2022/07/15 11:11:18;;;;;;;3.65;1.13;;;;;;;18.96;100.00;101344.97;5093457;28;20040;-85
2022/07/15 11:13:49;;;;;;;4.13;1.05;;;;;;;19.50;100.00;101328.25;5096809;28;20054;-84
2022/07/15 11:16:19;;;;;;;5.22;1.20;;;;;;;19.58;100.00;101328.59;5089373;28;20405;-85
2022/07/15 11:18:50;;;;;;;4.90;1.35;;;;;;;19.50;100.00;101357.47;5092036;28;20082;-86
2022/07/15 11:21:17;;;;;;;3.92;1.20;;;;;;;19.38;100.00;101302.50;5111935;28;20480;-85
2022/07/15 11:23:45;;;;;;;3.80;1.05;;;;;;;19.20;100.00;101329.31;5093801;28;20122;-86
2022/07/15 11:26:12;;;;;;;4.43;1.08;;;;;;;19.06;100.00;101319.56;5108419;27;20052;-86
2022/07/15 11:28:55;;;;;;;2.33;0.85;;;;;;;19.00;100.00;101311.13;5118856;27;20125;-86
2022/07/15 11:31:23;;;;;;;3.40;1.07;;;;;;;20.13;100.00;101334.69;5094717;28;20052;-85
2022/07/15 11:33:55;;;;;;;3.22;1.00;;;;;;;20.29;100.00;101353.97;5092912;28;20090;-86
2022/07/15 11:36:23;;;;;;;3.30;1.02;;;;;;;20.45;100.00;101367.03;5103463;28;20125;-86